createdAt,value
2022-08-29T00:00:57.170Z,96961.70
2022-08-29T00:03:27.568Z,96964.69
2022-08-29T00:05:57.389Z,96964.69
2022-08-29T00:08:27.183Z,96973.70
2022-08-29T00:10:56.916Z,96982.72
2022-08-29T00:13:26.630Z,96995.84
2022-08-29T00:15:56.559Z,97005.42
2022-08-29T00:18:26.211Z,97016.36
2022-08-29T00:20:55.842Z,97023.48
2022-08-29T00:23:25.483Z,97019.94
2022-08-29T00:25:55.564Z,97014.47
2022-08-29T00:28:25.533Z,97014.73
2022-08-29T00:30:55.436Z,97018.86
2022-08-29T00:33:25.243Z,97014.20
2022-08-29T00:35:55.069Z,97009.57
2022-08-29T00:38:27.727Z,97021.02
2022-08-29T00:41:01.786Z,97036.63
2022-08-29T00:43:34.528Z,97057.16
2022-08-29T00:46:10.286Z,97061.24
2022-08-29T00:48:40.562Z,97051.67
2022-08-29T00:51:12.493Z,97042.91
2022-08-29T00:53:44.452Z,97028.16
2022-08-29T00:56:15.112Z,97012.58
2022-08-29T00:58:47.562Z,97015.33
2022-08-29T01:01:17.232Z,97019.69
2022-08-29T01:03:46.990Z,97024.08
2022-08-29T01:06:17.587Z,97035.02
2022-08-29T01:08:47.123Z,97041.86
2022-08-29T01:11:35.108Z,97024.63
2022-08-29T01:14:04.617Z,97033.36
2022-08-29T01:16:34.489Z,97027.41
2022-08-29T01:29:23.423Z,97094.92
2022-08-29T01:31:57.769Z,97108.92
2022-08-29T01:37:18.104Z,97167.98
2022-08-29T01:39:58.532Z,97203.83
2022-08-29T01:42:29.552Z,97218.58
2022-08-29T01:45:03.387Z,97236.36
2022-08-29T01:47:53.425Z,97238.03
2022-08-29T01:50:23.243Z,97248.17
2022-08-29T01:52:54.410Z,97264.02
2022-08-29T01:55:24.287Z,97245.95
2022-08-29T01:57:53.980Z,97283.71
2022-08-29T02:00:23.694Z,97291.06
2022-08-29T02:04:45.676Z,97288.63
2022-08-29T02:08:56.039Z,97310.50
2022-08-29T02:11:25.763Z,97306.16
2022-08-29T02:13:57.037Z,97320.66
2022-08-29T02:19:44.368Z,97335.13
2022-08-29T02:22:08.489Z,97329.41
2022-08-29T02:24:38.093Z,97343.08
2022-08-29T02:27:10.913Z,97374.79
2022-08-29T02:29:43.056Z,97397.48
2022-08-29T02:32:16.791Z,97406.24
2022-08-29T02:34:47.895Z,97403.25
2022-08-29T02:37:19.903Z,97412.27
2022-08-29T02:39:51.662Z,97424.31
2022-08-29T02:42:21.469Z,97428.94
2022-08-29T02:44:51.142Z,97426.75
2022-08-29T02:47:22.626Z,97416.08
2022-08-29T02:49:52.392Z,97423.47
2022-08-29T02:52:22.439Z,97417.44
2022-08-29T02:54:52.172Z,97423.20
2022-08-29T02:57:21.884Z,97421.28
2022-08-29T02:59:51.559Z,97412.00
2022-08-29T03:02:21.315Z,97402.44
2022-08-29T03:04:54.201Z,97398.04
2022-08-29T03:07:23.996Z,97397.22
2022-08-29T03:09:56.534Z,97400.77
2022-08-29T03:12:29.434Z,97408.98
2022-08-29T03:15:04.334Z,97422.39
2022-08-29T03:17:40.451Z,97419.10
2022-08-29T03:20:52.183Z,97413.89
2022-08-29T03:23:08.468Z,97413.08
2022-08-29T03:28:51.527Z,97449.45
2022-08-29T03:31:25.435Z,97453.84
2022-08-29T03:33:55.806Z,97454.37
2022-08-29T03:36:26.920Z,97452.19
2022-08-29T03:41:41.358Z,97457.39
2022-08-29T03:44:11.183Z,97453.81
2022-08-29T03:46:41.017Z,97443.72
2022-08-29T03:49:10.677Z,97451.08
2022-08-29T03:51:46.340Z,97446.16
2022-08-29T03:54:15.977Z,97458.21
2022-08-29T03:59:54.235Z,97472.70
2022-08-29T04:02:45.911Z,97477.88
2022-08-29T04:05:29.425Z,97498.40
2022-08-29T04:08:24.801Z,97504.16
2022-08-29T04:14:00.701Z,97507.72
2022-08-29T04:16:31.479Z,97517.84
2022-08-29T04:19:26.538Z,97514.01
2022-08-29T04:21:57.495Z,97519.48
2022-08-29T04:26:35.844Z,97502.80
2022-08-29T04:27:52.171Z,97499.52
2022-08-29T04:33:28.428Z,97487.45
2022-08-29T04:36:14.984Z,97499.25
2022-08-29T04:38:39.055Z,97496.25
2022-08-29T04:41:36.465Z,97488.59
2022-08-29T04:47:38.646Z,97485.02
2022-08-29T04:50:48.287Z,97482.57
2022-08-29T04:52:47.275Z,97495.44
2022-08-29T04:58:28.153Z,97491.59
2022-08-29T05:00:57.740Z,97477.36
2022-08-29T05:03:27.402Z,97472.98
2022-08-29T05:06:17.719Z,97467.78
2022-08-29T05:09:08.427Z,97467.22
2022-08-29T05:11:38.367Z,97469.95
2022-08-29T05:14:11.438Z,97463.93
2022-08-29T05:16:41.605Z,97459.02
2022-08-29T05:19:11.731Z,97446.44
2022-08-29T05:21:41.679Z,97444.52
2022-08-29T05:24:12.929Z,97447.50
2022-08-29T05:26:45.138Z,97451.09
2022-08-29T05:29:14.860Z,97453.27
2022-08-29T05:31:45.622Z,97451.61
2022-08-29T05:34:34.396Z,97448.06
2022-08-29T05:36:46.736Z,97440.95
2022-08-29T05:39:16.289Z,97431.63
2022-08-29T05:41:46.279Z,97429.16
2022-08-29T05:44:17.341Z,97423.69
2022-08-29T05:46:47.125Z,97411.66
2022-08-29T05:49:17.034Z,97408.36
2022-08-29T05:51:46.543Z,97402.63
2022-08-29T05:54:16.577Z,97389.47
2022-08-29T05:56:46.184Z,97380.17
2022-08-29T05:59:15.808Z,97368.67
2022-08-29T06:01:46.873Z,97358.27
2022-08-29T06:04:16.416Z,97349.50
2022-08-29T06:06:46.026Z,97341.29
2022-08-29T06:09:17.167Z,97331.97
2022-08-29T06:11:48.735Z,97333.34
2022-08-29T06:14:23.527Z,97323.20
2022-08-29T06:16:53.739Z,97317.20
2022-08-29T06:19:23.344Z,97313.91
2022-08-29T06:21:52.880Z,97308.44
2022-08-29T06:24:22.566Z,97312.23
2022-08-29T06:26:52.078Z,97300.77
2022-08-29T06:29:21.682Z,97300.21
2022-08-29T06:31:54.207Z,97298.30
2022-08-29T06:34:23.747Z,97300.48
2022-08-29T06:36:53.384Z,97303.50
2022-08-29T06:39:23.024Z,97303.50
2022-08-29T06:41:52.553Z,97303.77
2022-08-29T06:44:22.577Z,97305.13
2022-08-29T06:46:52.231Z,97305.39
2022-08-29T06:49:22.687Z,97303.20
2022-08-29T06:51:57.706Z,97291.70
2022-08-29T06:54:25.350Z,97287.07
2022-08-29T06:56:56.801Z,97282.96
2022-08-29T06:59:26.423Z,97276.38
2022-08-29T07:01:58.881Z,97277.19
2022-08-29T07:04:29.865Z,97281.30
2022-08-29T07:07:00.604Z,97278.84
2022-08-29T07:09:31.946Z,97282.11
2022-08-29T07:12:02.608Z,97276.63
2022-08-29T07:14:32.729Z,97276.36
2022-08-29T07:17:02.834Z,97275.80
2022-08-29T07:19:32.973Z,97268.42
2022-08-29T07:22:05.268Z,97272.81
2022-08-29T07:24:35.108Z,97271.72
2022-08-29T07:27:04.846Z,97265.68
2022-08-29T07:29:34.642Z,97262.67
2022-08-29T07:32:07.926Z,97262.12
2022-08-29T07:34:38.893Z,97261.30
2022-08-29T07:37:09.772Z,97273.63
2022-08-29T07:39:40.294Z,97276.62
2022-08-29T07:42:10.051Z,97283.46
2022-08-29T07:44:39.800Z,97276.62
2022-08-29T07:47:09.970Z,97274.17
2022-08-29T07:49:42.020Z,97273.61
2022-08-29T07:52:11.271Z,97270.06
2022-08-29T07:54:41.224Z,97265.67
2022-08-29T07:57:10.973Z,97248.20
2022-08-29T07:59:40.783Z,97255.27
2022-08-29T08:02:10.978Z,97253.89
2022-08-29T08:04:43.639Z,97249.78
2022-08-29T08:07:16.187Z,97245.68
2022-08-29T08:09:46.054Z,97242.13
2022-08-29T08:12:16.965Z,97233.91
2022-08-29T08:14:46.533Z,97245.68
2022-08-29T08:17:16.244Z,97251.17
2022-08-29T08:19:47.456Z,97249.24
2022-08-29T08:22:17.104Z,97247.88
2022-08-29T08:24:46.641Z,97249.53
2022-08-29T08:27:16.166Z,97247.61
2022-08-29T08:29:45.872Z,97245.42
2022-08-29T08:32:15.639Z,97246.23
2022-08-29T08:34:45.260Z,97253.08
2022-08-29T08:37:24.186Z,97247.05
2022-08-29T08:39:46.106Z,97251.16
2022-08-29T08:42:25.032Z,97249.23
2022-08-29T08:45:08.923Z,97252.52
2022-08-29T08:47:44.584Z,97254.15
2022-08-29T08:50:38.957Z,97257.44
2022-08-29T08:53:11.265Z,97260.47
2022-08-29T08:55:52.083Z,97265.09
2022-08-29T08:58:29.195Z,97270.32
2022-08-29T09:01:05.453Z,97274.68
2022-08-29T09:04:05.293Z,97282.38
2022-08-29T09:07:03.128Z,97278.79
2022-08-29T09:09:50.223Z,97281.00
2022-08-29T09:12:45.544Z,97286.48
2022-08-29T09:15:18.642Z,97288.11
2022-08-29T09:17:54.684Z,97293.03
2022-08-29T09:20:28.662Z,97294.95
2022-08-29T09:23:07.004Z,97302.06
2022-08-29T09:25:39.454Z,97306.72
2022-08-29T09:28:09.755Z,97302.06
2022-08-29T09:30:41.976Z,97310.27
2022-08-29T09:33:18.268Z,97320.97
2022-08-29T09:35:53.334Z,97325.33
2022-08-29T09:38:24.832Z,97318.48
2022-08-29T09:41:02.032Z,97322.06
2022-08-29T09:43:43.322Z,97326.17
2022-08-29T09:46:23.560Z,97329.44
2022-08-29T09:49:09.117Z,97330.80
2022-08-29T09:51:40.018Z,97332.47
2022-08-29T09:54:18.329Z,97333.83
2022-08-29T09:57:10.009Z,97341.49
2022-08-29T09:59:41.396Z,97340.13
2022-08-29T10:02:15.529Z,97340.67
2022-08-29T10:04:48.093Z,97347.78
2022-08-29T10:07:23.427Z,97345.59
2022-08-29T10:10:05.461Z,97346.16
2022-08-29T10:12:54.542Z,97350.83
2022-08-29T10:15:49.345Z,97353.82
2022-08-29T10:18:24.375Z,97362.29
2022-08-29T10:21:31.772Z,97366.40
2022-08-29T10:24:14.644Z,97370.25
2022-08-29T10:26:45.217Z,97366.70
2022-08-29T10:29:43.395Z,97369.69
2022-08-29T10:32:32.110Z,97374.61
2022-08-29T10:35:07.451Z,97377.34
2022-08-29T10:37:46.578Z,97368.08
2022-08-29T10:40:21.993Z,97374.61
2022-08-29T10:42:51.745Z,97372.98
2022-08-29T10:45:35.088Z,97374.61
2022-08-29T10:48:24.056Z,97369.14
2022-08-29T10:51:11.635Z,97378.72
2022-08-29T10:53:46.875Z,97380.64
2022-08-29T10:56:26.037Z,97381.45
2022-08-29T10:59:19.617Z,97378.20
2022-08-29T11:02:03.148Z,97386.41
2022-08-29T11:04:36.307Z,97383.67
2022-08-29T11:07:31.330Z,97379.28
2022-08-29T11:10:08.688Z,97383.39
2022-08-29T11:12:52.867Z,97385.58
2022-08-29T11:15:37.101Z,97383.39
2022-08-29T11:18:13.416Z,97382.84
2022-08-29T11:20:50.250Z,97390.52
2022-08-29T11:23:42.627Z,97388.87
2022-08-29T11:26:36.202Z,97394.90
2022-08-29T11:29:17.847Z,97392.97
2022-08-29T11:32:05.339Z,97393.78
2022-08-29T11:35:03.515Z,97390.79
2022-08-29T11:37:37.134Z,97398.73
2022-08-29T11:43:02.288Z,97400.38
2022-08-29T11:45:37.712Z,97403.37
2022-08-29T11:48:36.532Z,97405.30
2022-08-29T11:51:39.731Z,97406.95
2022-08-29T11:54:30.564Z,97419.27
2022-08-29T11:57:06.426Z,97423.38
2022-08-29T11:59:55.172Z,97434.33
2022-08-29T12:02:33.885Z,97438.44
2022-08-29T12:05:05.596Z,97436.52
2022-08-29T12:07:55.528Z,97439.80
2022-08-29T12:10:29.005Z,97442.55
2022-08-29T12:13:05.544Z,97445.54
2022-08-29T12:15:38.194Z,97443.62
2022-08-29T12:18:15.442Z,97446.35
2022-08-29T12:20:47.174Z,97454.57
2022-08-29T12:23:22.540Z,97453.75
2022-08-29T12:26:21.438Z,97456.49
2022-08-29T12:28:37.601Z,97461.41
2022-08-29T12:31:12.327Z,97462.23
2022-08-29T12:33:59.793Z,97470.44
2022-08-29T12:36:52.234Z,97474.55
2022-08-29T12:39:43.917Z,97473.18
2022-08-29T12:42:35.707Z,97469.07
2022-08-29T12:45:08.336Z,97482.50
2022-08-29T12:47:49.861Z,97480.31
2022-08-29T12:50:31.435Z,97478.66
2022-08-29T12:53:24.062Z,97483.88
2022-08-29T12:55:58.272Z,97491.53
2022-08-29T12:58:39.477Z,97501.11
2022-08-29T13:01:30.441Z,97501.41
2022-08-29T13:04:10.085Z,97499.48
2022-08-29T13:06:40.019Z,97503.34
2022-08-29T13:09:14.534Z,97509.13
2022-08-29T13:11:44.587Z,97507.72
2022-08-29T13:14:14.583Z,97523.33
2022-08-29T13:16:44.214Z,97523.33
2022-08-29T13:19:25.813Z,97523.58
2022-08-29T13:21:58.247Z,97532.89
2022-08-29T13:24:27.906Z,97530.42
2022-08-29T13:27:05.575Z,97533.16
2022-08-29T13:32:14.626Z,97541.37
2022-08-29T13:35:02.901Z,97540.28
2022-08-29T13:37:35.959Z,97547.93
2022-08-29T13:40:31.357Z,97547.64
2022-08-29T13:43:04.969Z,97546.28
2022-08-29T13:45:35.611Z,97548.49
2022-08-29T13:48:14.113Z,97553.66
2022-08-29T13:50:45.032Z,97546.00
2022-08-29T13:53:14.842Z,97554.48
2022-08-29T13:55:46.389Z,97555.84
2022-08-29T13:58:16.247Z,97557.52
2022-08-29T14:00:47.754Z,97560.80
2022-08-29T14:03:19.052Z,97561.86
2022-08-29T14:05:48.652Z,97558.86
2022-08-29T14:11:27.003Z,97567.08
2022-08-29T14:13:56.888Z,97571.18
2022-08-29T14:16:36.745Z,97568.98
2022-08-29T14:19:07.827Z,97568.42
2022-08-29T14:21:37.578Z,97568.43
2022-08-29T14:24:07.579Z,97573.09
2022-08-29T14:26:37.787Z,97572.28
2022-08-29T14:29:08.027Z,97572.27
2022-08-29T14:31:38.004Z,97565.97
2022-08-29T14:34:07.785Z,97568.72
2022-08-29T14:36:43.451Z,97565.69
2022-08-29T14:39:12.886Z,97567.88
2022-08-29T14:41:43.121Z,97569.24
2022-08-29T14:44:20.401Z,97571.45
2022-08-29T14:46:47.513Z,97572.80
2022-08-29T14:49:17.149Z,97574.98
2022-08-29T14:51:46.861Z,97575.55
2022-08-29T14:54:17.856Z,97569.52
2022-08-29T14:56:49.236Z,97581.02
2022-08-29T14:59:21.588Z,97574.42
2022-08-29T15:01:54.613Z,97575.78
2022-08-29T15:04:30.391Z,97571.69
2022-08-29T15:06:54.259Z,97581.53
2022-08-29T15:09:23.884Z,97593.02
2022-08-29T15:11:53.909Z,97587.28
2022-08-29T15:14:23.775Z,97590.83
2022-08-29T15:16:53.392Z,97592.20
2022-08-29T15:21:54.527Z,97600.14
2022-08-29T15:24:27.425Z,97600.14
2022-08-29T15:26:59.055Z,97608.04
2022-08-29T15:29:28.660Z,97605.86
2022-08-29T15:32:01.165Z,97610.79
2022-08-29T15:34:31.997Z,97605.06
2022-08-29T15:37:02.493Z,97602.88
2022-08-29T15:39:32.577Z,97606.97
2022-08-29T15:42:02.990Z,97604.77
2022-08-29T15:44:33.624Z,97616.24
2022-08-29T15:47:03.994Z,97607.51
2022-08-29T15:49:34.940Z,97614.89
2022-08-29T15:52:05.181Z,97616.81
2022-08-29T15:54:36.555Z,97612.42
2022-08-29T15:57:06.488Z,97606.67
2022-08-29T15:59:57.112Z,97618.98
2022-08-29T16:02:08.151Z,97597.09
2022-08-29T16:04:37.765Z,97622.58
2022-08-29T16:07:07.439Z,97629.94
2022-08-29T16:09:37.167Z,97636.23
2022-08-29T16:12:07.110Z,97633.21
2022-08-29T16:14:58.748Z,97636.50
2022-08-29T16:17:08.307Z,97636.25
2022-08-29T16:19:41.552Z,97631.86
2022-08-29T16:22:11.475Z,97633.21
2022-08-29T16:24:42.604Z,97636.75
2022-08-29T16:27:12.160Z,97637.61
2022-08-29T16:29:42.038Z,97638.69
2022-08-29T16:32:11.538Z,97640.62
2022-08-29T16:34:41.221Z,97638.43
2022-08-29T16:37:11.029Z,97636.23
2022-08-29T16:39:40.674Z,97635.14
2022-08-29T16:42:11.811Z,97634.03
2022-08-29T16:44:42.162Z,97637.62
2022-08-29T16:47:14.798Z,97631.05
2022-08-29T16:49:45.241Z,97629.67
2022-08-29T16:52:15.663Z,97619.51
2022-08-29T16:54:45.392Z,97619.51
2022-08-29T16:57:15.031Z,97644.72
2022-08-29T16:59:44.679Z,97645.80
2022-08-29T17:02:14.366Z,97639.80
2022-08-29T17:04:43.921Z,97638.98
2022-08-29T17:07:13.766Z,97639.80
2022-08-29T17:09:42.347Z,97634.33
2022-08-29T17:12:11.037Z,97632.97
2022-08-29T17:14:40.764Z,97635.97
2022-08-29T17:17:10.616Z,97629.94
2022-08-29T17:19:41.262Z,97621.45
2022-08-29T17:22:12.438Z,97620.89
2022-08-29T17:24:42.016Z,97619.82
2022-08-29T17:27:11.972Z,97610.78
2022-08-29T17:29:42.833Z,97607.80
2022-08-29T17:32:12.623Z,97612.45
2022-08-29T17:34:42.584Z,97614.34
2022-08-29T17:37:12.190Z,97617.07
2022-08-29T17:39:41.785Z,97614.89
2022-08-29T17:42:11.292Z,97615.17
2022-08-29T17:44:41.145Z,97614.06
2022-08-29T17:47:12.145Z,97618.17
2022-08-29T17:49:41.881Z,97612.44
2022-08-29T17:52:11.827Z,97612.45
2022-08-29T17:54:41.464Z,97610.27
2022-08-29T17:57:11.072Z,97604.52
2022-08-29T17:59:40.654Z,97609.98
2022-08-29T18:02:10.936Z,97599.03
2022-08-29T18:04:40.588Z,97600.39
2022-08-29T18:07:10.202Z,97594.92
2022-08-29T18:09:39.797Z,97590.28
2022-08-29T18:12:09.982Z,97589.20
2022-08-29T18:14:39.667Z,97587.02
2022-08-29T18:17:10.762Z,97582.91
2022-08-29T18:19:46.093Z,97578.82
2022-08-29T18:22:15.692Z,97570.88
2022-08-29T18:24:46.660Z,97563.23
2022-08-29T18:27:16.270Z,97561.02
2022-08-29T18:29:48.828Z,97556.09
2022-08-29T18:32:18.547Z,97537.23
2022-08-29T18:34:48.242Z,97538.87
2022-08-29T18:37:17.795Z,97537.25
2022-08-29T18:39:47.409Z,97529.56
2022-08-29T18:42:38.867Z,97529.86
2022-08-29T18:44:48.196Z,97522.73
2022-08-29T18:47:17.701Z,97516.19
2022-08-29T18:50:04.348Z,97513.72
2022-08-29T18:52:36.525Z,97517.82
2022-08-29T18:55:06.887Z,97520.55
2022-08-29T18:57:36.555Z,97532.30
2022-08-29T19:00:08.379Z,97549.82
2022-08-29T19:02:38.191Z,97561.86
2022-08-29T19:05:08.509Z,97556.11
2022-08-29T19:07:38.054Z,97550.93
2022-08-29T19:10:09.676Z,97549.27
2022-08-29T19:12:39.412Z,97532.84
2022-08-29T19:15:10.280Z,97520.55
2022-08-29T19:17:39.933Z,97521.10
2022-08-29T19:20:28.272Z,97523.58
2022-08-29T19:22:59.675Z,97555.55
2022-08-29T19:25:34.558Z,97559.14
2022-08-29T19:28:06.785Z,97557.47
2022-08-29T19:30:36.545Z,97568.41
2022-08-29T19:33:07.667Z,97572.25
2022-08-29T19:35:38.715Z,97567.34
2022-08-29T19:38:08.623Z,97549.82
2022-08-29T19:40:39.232Z,97538.87
2022-08-29T19:43:14.796Z,97543.53
2022-08-29T19:45:46.036Z,97554.74
2022-08-29T19:48:20.286Z,97553.92
2022-08-29T19:50:52.084Z,97552.30
2022-08-29T19:53:27.168Z,97541.05
2022-08-29T19:55:58.534Z,97515.07
2022-08-29T19:58:31.870Z,97491.83
2022-08-29T20:00:59.719Z,97509.34
2022-08-29T20:03:29.503Z,97536.14
2022-08-29T20:06:02.550Z,97569.52
2022-08-29T20:08:33.189Z,97594.92
2022-08-29T20:11:06.596Z,97613.52
2022-08-29T20:13:36.817Z,97638.97
2022-08-29T20:16:12.469Z,97657.58
2022-08-29T20:18:44.745Z,97653.73
2022-08-29T20:21:19.465Z,97640.61
